• Join FlightAware (Why Join?)
  • Login
  • US Flag 
12:13AM EDT


 

Airport Tracker/Info


-or-


 

Live Flight TrackerFlight Track Log ✈ TCF3516 ✈ 15-Jun-2013 ✈ KMSP - KIAH

Flight Track Log - Related Links

Times and Time Zones

All times are in EDT time to prevent confusion due to time zone crossing. See the TCF3516 flight status page for this flight to view local times or setup timezone preferences in your user account.

Time Position Orientation Groundspeed Altitude Reporting Facility
EDT Latitude Longitude Course Direction KTS MPH feet Rate Location/Type
05:08PM 44.9000 -93.2500 230° Southwest 160 184 2,300  Level Minneapolis TRACON
05:09PM 44.8919 -93.3058 259° West 180 207 3,400 1,740 Climbing Minneapolis Center
05:10PM 44.8839 -93.3981 263° West 250 288 5,500 1,740 Climbing Minneapolis Center
05:11PM 44.6527 -93.6947 235° Southwest  Level FlightAware Approximate
05:11PM 44.8308 -93.4694 224° Southwest 274 315 7,100  Level Minneapolis Center
05:12PM 44.5921 -93.8159 235° Southwest  Level FlightAware Approximate
05:12PM 44.7586 -93.5058 200° South 280 322 8,700  Level Minneapolis Center
05:13PM 44.5218 -93.9248 230° Southwest  Level FlightAware Approximate
05:13PM 44.6814 -93.5806 215° Southwest 308 354 11,700  Level Minneapolis Center
05:14PM 44.6358 -93.6814 238° Southwest 315 362 14,100 2,280 Climbing Minneapolis Center
05:15PM 44.5475 -93.7264 200° South 349 402 16,500 2,220 Climbing Minneapolis Center
05:16PM 44.4531 -93.7625 195° South 355 409 18,700 2,100 Climbing Minneapolis Center
05:17PM 44.3567 -93.7992 195° South 358 412 20,900 2,040 Climbing Minneapolis Center
05:18PM 44.2567 -93.8378 195° South 370 426 22,900 1,800 Climbing Minneapolis Center
05:19PM 44.1558 -93.8761 195° South 375 432 24,700 1,800 Climbing Minneapolis Center
05:20PM 44.0542 -93.9164 196° South 381 438 26,700 1,800 Climbing Minneapolis Center
05:21PM 43.9325 -93.9628 195° South 378 435 28,500 1,380 Climbing Minneapolis Center
05:22PM 43.8300 -94.0017 195° South 382 440 29,600 960 Climbing Minneapolis Center
05:23PM 43.7244 -94.0411 195° South 390 449 30,600 1,020 Climbing Minneapolis Center
05:24PM 43.6183 -94.0814 195° South 396 456 31,800 1,380 Climbing Minneapolis Center
05:25PM 43.5150 -94.1208 195° South 392 451 33,500 1,500 Climbing Minneapolis Center
05:26PM 43.3914 -94.1681 196° South 389 448 34,900 1,080 Climbing Minneapolis Center
05:27PM 43.2956 -94.2033 195° South 381 438 35,800 480 Climbing Minneapolis Center
05:28PM 43.2083 -94.2364 195° South 361 415 36,000 60 Climbing Minneapolis Center
05:29PM 43.1158 -94.2858 201° Southwest 356 410 36,000  Level Minneapolis Center
05:30PM 43.0208 -94.3547 208° Southwest 371 427 36,000  Level Minneapolis Center
05:31PM 42.9342 -94.4133 206° Southwest 368 423 36,000  Level Minneapolis Center
05:32PM 42.8239 -94.4853 206° Southwest 369 425 36,000  Level Minneapolis Center
05:33PM 42.7322 -94.5467 206° Southwest 370 426 36,000  Level Minneapolis Center
05:34PM 42.6436 -94.6075 207° Southwest 371 427 36,000  Level Minneapolis Center
05:36PM 42.5500 -94.6675 205° Southwest 371 427 36,000  Level Minneapolis Center
05:37PM 42.4764 -94.7164 206° Southwest 369 425 36,000  Level Minneapolis Center
05:38PM 42.3464 -94.7997 205° Southwest 368 423 36,000  Level Minneapolis Center
05:39PM 42.2536 -94.8617 206° Southwest 370 426 36,000  Level Minneapolis Center
05:40PM 42.1614 -94.9231 206° Southwest 372 428 36,000  Level Minneapolis Center
05:41PM 42.0675 -94.9803 204° Southwest 369 425 36,000  Level Minneapolis Center
05:42PM 41.9733 -95.0417 206° Southwest 373 429 36,000  Level Minneapolis Center
05:43PM 41.8786 -95.1022 205° Southwest 375 432 36,000  Level Minneapolis Center
05:44PM 41.7844 -95.1619 205° Southwest 376 433 36,000  Level Minneapolis Center
05:45PM 41.6892 -95.2233 206° Southwest 378 435 36,000  Level Minneapolis Center
05:46PM 41.5947 -95.2842 206° Southwest 377 434 36,000  Level Minneapolis Center
05:47PM 41.4586 -95.3703 205° Southwest 383 441 36,000  Level Minneapolis Center
05:48PM 41.3608 -95.4314 205° Southwest 384 442 36,000  Level Minneapolis Center
05:49PM 41.2622 -95.4933 205° Southwest 388 447 36,000  Level Minneapolis Center
05:50PM 41.1639 -95.5553 205° Southwest 388 447 36,000  Level Minneapolis Center
05:51PM 41.0653 -95.6172 205° Southwest 388 447 36,000  Level Minneapolis Center
05:52PM 40.9683 -95.6789 206° Southwest 385 443 36,000  Level Minneapolis Center
05:53PM 40.8706 -95.7389 205° Southwest 385 443 36,000  Level Minneapolis Center
05:54PM 40.7739 -95.7989 205° Southwest 384 442 36,000  Level Minneapolis Center
05:55PM 40.6581 -95.8706 205° Southwest 382 440 36,000  Level Minneapolis Center
05:56PM 40.5603 -95.9311 205° Southwest 385 443 36,000  Level Minneapolis Center
05:58PM 40.4269 -96.0181 206° Southwest 383 441 36,000  Level Minneapolis Center
05:59PM 40.3339 -96.0889 210° Southwest 382 440 36,000  Level Minneapolis Center
06:00PM 40.2472 -96.1033 187° South 389 448 36,000  Level Minneapolis Center
06:01PM 40.1161 -96.1211 186° South 394 453 36,000  Level Minneapolis Center
06:01PM 40.0494 -96.1319 187° South 392 451 36,000  Level Kansas City Center
06:02PM 39.9475 -96.1594 192° South 391 450 36,000  Level Kansas City Center
06:03PM 39.8372 -96.2014 196° South 391 450 36,000 -60 Level Kansas City Center
06:04PM 39.7358 -96.2567 203° Southwest 391 450 35,900  Descending Kansas City Center
06:05PM 39.6414 -96.3103 204° Southwest 389 448 36,000  Climbing Kansas City Center
06:06PM 39.5286 -96.3739 204° Southwest 396 456 36,000  Level Kansas City Center
06:07PM 39.4414 -96.4253 204° Southwest 400 460 36,000  Level Kansas City Center
06:08PM 39.3411 -96.4900 207° Southwest 400 460 36,000  Level Kansas City Center
06:10PM 39.2242 -96.5631 206° Southwest 402 463 36,000  Level Kansas City Center
06:11PM 39.1253 -96.6203 204° Southwest 403 464 36,000  Level Kansas City Center
06:12PM 39.0153 -96.6994 209° Southwest 406 467 36,000  Level Kansas City Center
06:13PM 38.9194 -96.7686 209° Southwest 405 466 36,000  Level Kansas City Center
06:14PM 38.8203 -96.8394 209° Southwest 406 467 36,000  Level Kansas City Center
06:15PM 38.7219 -96.9097 209° Southwest 404 465 36,000  Level Kansas City Center
06:16PM 38.6222 -96.9797 209° Southwest 407 468 36,000  Level Kansas City Center
06:17PM 38.5239 -97.0489 209° Southwest 405 466 36,000  Level Kansas City Center
06:18PM 38.4247 -97.1189 209° Southwest 407 468 36,000  Level Kansas City Center
06:19PM 38.3250 -97.1869 208° Southwest 407 468 36,000  Level Kansas City Center
06:20PM 38.2239 -97.2567 208° Southwest 410 472 36,000  Level Kansas City Center
06:21PM 38.1222 -97.3256 208° Southwest 411 473 36,000  Level Kansas City Center
06:22PM 38.0031 -97.3272 181° South 429 494 36,000  Level Kansas City Center
06:23PM 37.8836 -97.3169 176° South 425 489 36,000  Level Kansas City Center
06:24PM 37.7644 -97.3064 176° South 424 488 36,000  Level Kansas City Center
06:25PM 37.6447 -97.2944 175° South 426 490 36,000  Level Kansas City Center
06:26PM 37.5264 -97.2842 176° South 423 487 36,000  Level Kansas City Center
06:27PM 37.4058 -97.2742 176° South 429 494 36,000  Level Kansas City Center
06:28PM 37.2850 -97.2642 176° South 430 495 36,000  Level Kansas City Center
06:29PM 37.1408 -97.2519 176° South 431 496 36,000  Level Kansas City Center
06:30PM 37.0236 -97.2386 175° South 424 488 36,000  Level Kansas City Center
06:31PM 36.9283 -97.2300 176° South 426 490 36,000 240 Level Kansas City Center
06:32PM 36.7917 -97.2178 176° South 425 489 36,500 660 Climbing Kansas City Center
06:33PM 36.6753 -97.2067 176° South 421 484 37,400 720 Climbing Kansas City Center
06:34PM 36.5594 -97.1986 177° South 417 480 38,000 240 Climbing Kansas City Center
06:35PM 36.4442 -97.1914 177° South 416 479 38,000  Level Kansas City Center
06:36PM 36.3281 -97.1817 176° South 416 479 38,000  Level Kansas City Center
06:37PM 36.2103 -97.1722 176° South 422 486 38,000  Level Kansas City Center
06:38PM 36.0950 -97.1353 165° South 430 495 38,000  Level Kansas City Center
06:39PM 35.9569 -97.0858 164° South 431 496 38,000  Level Kansas City Center
06:40PM 35.8400 -97.0542 168° South 430 495 38,000  Level Kansas City Center
06:41PM 35.7206 -97.0372 173° South 430 495 38,000  Level Kansas City Center
06:42PM 35.6000 -97.0286 177° South 429 494 38,000  Level Kansas City Center
06:43PM 35.5494 -97.0258 177° South 435 501 38,000  Level Fort Worth Center
06:44PM 35.4306 -97.0186 177° South 435 501 38,000  Level Fort Worth Center
06:45PM 35.3203 -97.0600 197° South 420 483 38,000  Level Fort Worth Center
06:46PM 35.2161 -97.1492 215° Southwest 403 464 38,000  Level Fort Worth Center
06:47PM 35.1267 -97.2408 220° Southwest 410 472 38,000  Level Fort Worth Center
06:48PM 35.0411 -97.3325 221° Southwest 420 483 38,000  Level Fort Worth Center
06:49PM 34.9619 -97.4339 226° Southwest 420 483 38,000  Level Fort Worth Center
06:50PM 34.8911 -97.5375 230° Southwest 408 470 38,000  Level Fort Worth Center
06:51PM 34.8219 -97.6461 232° Southwest 408 470 38,000  Level Fort Worth Center
06:52PM 34.7569 -97.7547 234° Southwest 408 470 38,000  Level Fort Worth Center
06:53PM 34.6836 -97.8556 229° Southwest 408 470 38,000  Level Fort Worth Center
06:54PM 34.5833 -97.9206 208° Southwest 398 458 38,000  Level Fort Worth Center
06:55PM 34.4725 -97.9525 193° South 398 458 38,000  Level Fort Worth Center
06:56PM 34.3517 -97.9417 176° South 412 474 38,000  Level Fort Worth Center
06:57PM 34.2350 -97.8983 163° South 417 480 38,000  Level Fort Worth Center
06:58PM 34.1308 -97.8200 148° Southeast 423 487 38,000  Level Fort Worth Center
06:59PM 34.0414 -97.7469 146° Southeast 423 487 38,000  Level Fort Worth Center
07:00PM 33.9353 -97.6664 148° Southeast 444 511 38,000  Level Fort Worth Center
07:01PM 33.8289 -97.5886 149° Southeast 449 517 38,000  Level Fort Worth Center
07:02PM 33.7247 -97.5108 148° Southeast 449 517 38,000  Level Fort Worth Center
07:03PM 33.6183 -97.4333 149° Southeast 449 517 38,000  Level Fort Worth Center
07:04PM 33.5117 -97.3561 149° Southeast 449 517 38,000  Level Fort Worth Center
07:05PM 33.4053 -97.2767 148° Southeast 449 517 38,000  Level Fort Worth Center
07:06PM 33.3008 -97.1997 148° Southeast 449 517 38,000  Level Fort Worth Center
07:07PM 33.1964 -97.1231 148° Southeast 449 517 38,000  Level Fort Worth Center
07:08PM 33.0897 -97.0414 147° Southeast 449 517 38,000  Level Fort Worth Center
07:09PM 32.9808 -96.9678 150° Southeast 449 517 38,000  Level Fort Worth Center
07:10PM 32.8594 -96.8967 154° Southeast 438 504 38,000  Level Fort Worth Center
07:11PM 32.7508 -96.8625 165° South 443 510 38,000  Level Fort Worth Center
07:12PM 32.6211 -96.8264 167° South 443 510 38,000 -360 Level Fort Worth Center
07:13PM 32.5019 -96.7950 167° South 438 504 37,300 -900 Descending Fort Worth Center
07:14PM 32.3828 -96.7592 166° South 438 504 36,300 -1,080 Descending Fort Worth Center
07:15PM 32.2617 -96.7256 167° South 438 504 35,200 -1,080 Descending Fort Worth Center
07:16PM 32.1653 -96.6992 167° South 438 504 34,200 -1,140 Descending Fort Worth Center
07:17PM 32.0189 -96.6586 167° South 449 517 33,000 -1,200 Descending Fort Worth Center
07:18PM 31.9039 -96.6253 166° South 443 510 31,800 -1,020 Descending Fort Worth Center
07:19PM 31.7828 -96.5872 165° South 443 510 31,000 -600 Descending Fort Worth Center
07:19PM 31.7425 -96.5772 168° South 442 509 31,000  Level Houston Center
07:20PM 31.6217 -96.5436 167° South 440 506 31,000  Level Houston Center
07:21PM 31.5008 -96.5078 166° South 442 509 31,000  Level Houston Center
07:22PM 31.3819 -96.4633 162° South 442 509 31,000 -480 Level Houston Center
07:23PM 31.2631 -96.4156 161° South 445 512 30,100 -1,200 Descending Houston Center
07:24PM 31.1564 -96.3431 150° Southeast 439 505 28,600 -1,860 Descending Houston Center
07:25PM 31.0517 -96.2728 150° Southeast 430 495 26,300 -2,400 Descending Houston Center
07:26PM 30.9494 -96.2039 150° Southeast 421 484 23,700 -2,580 Descending Houston Center
07:27PM 30.8528 -96.1364 149° Southeast 403 464 21,100 -2,700 Descending Houston Center
07:28PM 30.8056 -96.1064 151° Southeast 394 453 19,900 -2,340 Descending Houston Center
07:28PM 30.7603 -96.0722 147° Southeast 383 441 18,700 -2,400 Descending Houston Center
07:29PM 30.7119 -96.0394 150° Southeast 369 425 17,500 -2,580 Descending Houston Center
07:29PM 30.6600 -96.0042 150° Southeast 366 421 16,100 -2,280 Descending Houston Center
07:30PM 30.6247 -95.9789 148° Southeast 353 406 15,200 -2,220 Descending Houston Center
07:30PM 30.5739 -95.9456 151° Southeast 353 406 13,900 -2,100 Descending Houston Center
07:31PM 30.5425 -95.9253 151° Southeast 350 403 13,100 -1,860 Descending Houston Center
07:31PM 30.4914 -95.8889 148° Southeast 345 397 12,000 -1,020 Descending Houston Center
07:32PM 30.4467 -95.8589 150° Southeast 354 407 12,000 -300 Level Houston Center
07:32PM 30.4117 -95.8197 136° Southeast 360 414 11,700 -840 Descending Houston Center
07:33PM 30.3725 -95.7803 139° Southeast 351 404 11,200 -1,020 Descending Houston Center
07:33PM 30.3397 -95.7444 137° Southeast 351 404 10,700 -900 Descending Houston Center
07:34PM 30.3008 -95.7064 140° Southeast 347 399 10,300 -720 Descending Houston Center
07:34PM 30.2678 -95.6697 136° Southeast 348 400 10,000 -300 Descending Houston Center
07:35PM 30.2269 -95.6306 140° Southeast 345 397 10,000  Level Houston Center
07:35PM 30.1983 -95.5969 135° Southeast 340 391 10,000 -120 Level Houston Center
07:36PM 30.1711 -95.5694 139° Southeast 282 325 9,900 -1,200 Descending Houston Center
07:36PM 30.1389 -95.5339 136° Southeast 305 351 8,800 -2,100 Descending Houston Center
07:37PM 30.1156 -95.5108 139° Southeast 274 315 7,800 -1,620 Descending Houston Center
07:37PM 30.1044 -95.4639 105° East 275 316 7,200 -840 Descending Houston Center
07:38PM 30.1050 -95.4181 89° East 274 315 7,000 -1,020 Descending Houston Center
07:38PM 30.1053 -95.3583 90° East 273 314 6,200 -1,020 Descending Houston Center
07:39PM 30.1056 -95.3311 89° East 267 307 6,000 -240 Descending Houston Center
07:39PM 30.1061 -95.2772 89° East 255 293 6,000 -120 Level Houston Center
07:40PM 30.1047 -95.2539 94° East 225 259 5,900 -1,560 Descending Houston Center
07:40PM 30.1058 -95.2050 88° East 229 264 4,400 -2,040 Descending Houston Center
07:41PM 30.1064 -95.1811 88° East 230 265 3,900 -1,680 Descending Houston Center
07:41PM 30.0875 -95.1419 119° Southeast 228 262 2,700 -1,680 Descending Houston Center
07:42PM 30.0669 -95.1425 181° South 218 251 2,200 -720 Descending Houston Center
07:42PM 30.0283 -95.1481 187° South 219 252 2,000 -180 Descending Houston Center
07:43PM 30.0083 -95.1667 219° Southwest 183 211 2,000  Level Houston Center
07:43PM 29.9994 -95.1961 251° West 199 229 2,000  Level Houston Center